Moses Lake, Washington
Current Conditions -  °F | °C
As of 6:52 PM on Wednesday 22 Oct 2014 (Local Time) from KMWH Reporting Station
Light Rain Light Rain  
Wind Chill: 56°   Ceiling: 7000
Heat Index: 56°   Visibility: 10mi
Dew Point: 51°   Wind: 17mph
Humidity: 84%   Direction: 150°SSE
Pressure: 29.68"   Gusts: NA
Location:  47.13°N, 119.27°W
Report Text: KMWH 230152Z 15015KT 10SM -RA OVC070 13/11 A2968 RMK AO2 RAB34 SLP052 P0001 T01330106
Loading
Personal Weather Stations






























Interactive Weather Map New forecast layout! Learn more

10-Day Weather Forecast

Advertisements
Track Severe Weather on mobile